Time;durP1;ratioP1;P1;durP2;ratioP2;P2;SDS_P1;SDS_P2;PMS_P1;PMS_P2;Temp;Humidity;BMP_temperature;BMP_pressure;BME280_temperature;BME280_humidity;BME280_pressure;Samples;Min_cycle;Max_cycle;Signal;HPM_P1;HPM_P2
2021/12/19 00:00:20;;;;;;;10.40;4.93;;;;;;;5.49;100.00;99501.19;5153098;27;20834;-54
2021/12/19 00:03:04;;;;;;;12.63;5.90;;;;;;;5.20;100.00;99495.06;5095356;28;20561;-54
2021/12/19 00:10:59;;;;;;;16.45;6.50;;;;;;;4.88;100.00;99486.25;5096177;28;20945;-54
2021/12/19 00:13:25;;;;;;;14.88;6.47;;;;;;;4.87;100.00;99490.56;5092616;28;20024;-55
2021/12/19 00:15:52;;;;;;;14.73;5.65;;;;;;;5.89;100.00;99485.78;5101081;28;20067;-54
2021/12/19 00:18:17;;;;;;;15.43;5.72;;;;;;;5.38;100.00;99480.44;5116216;28;20024;-55
2021/12/19 00:20:43;;;;;;;15.38;5.80;;;;;;;5.27;100.00;99474.38;5110752;27;20059;-54
2021/12/19 00:23:08;;;;;;;14.65;6.05;;;;;;;5.11;100.00;99469.13;5096189;28;20028;-54
2021/12/19 00:25:34;;;;;;;11.40;5.05;;;;;;;5.54;100.00;99463.25;5065209;28;20032;-55
2021/12/19 00:27:59;;;;;;;10.50;5.18;;;;;;;5.80;100.00;99450.34;5098937;28;20583;-54
2021/12/19 00:30:25;;;;;;;12.70;5.68;;;;;;;4.97;100.00;99460.44;5116712;27;20030;-55
2021/12/19 00:32:50;;;;;;;13.23;5.63;;;;;;;5.63;100.00;99457.25;5114883;28;20054;-54
2021/12/19 00:35:16;;;;;;;13.02;5.13;;;;;;;5.07;100.00;99456.16;5113395;28;20028;-55
2021/12/19 00:37:41;;;;;;;12.10;5.82;;;;;;;4.83;100.00;99453.50;5114199;28;20076;-55
2021/12/19 00:40:08;;;;;;;10.65;4.95;;;;;;;5.12;100.00;99452.75;5114228;27;20422;-54
2021/12/19 00:42:35;;;;;;;12.02;5.20;;;;;;;5.41;100.00;99447.69;5116407;28;20686;-55
2021/12/19 00:45:16;;;;;;;14.68;6.43;;;;;;;4.71;100.00;99445.66;5116651;28;20096;-55
2021/12/19 00:47:45;;;;;;;10.55;5.55;;;;;;;5.06;100.00;99459.63;5116999;28;20043;-55
2021/12/19 00:50:12;;;;;;;16.17;5.93;;;;;;;5.58;100.00;99458.06;5115549;27;20669;-55
2021/12/19 00:52:38;;;;;;;12.98;5.07;;;;;;;5.71;100.00;99452.94;5116553;28;20023;-54
2021/12/19 00:55:04;;;;;;;9.13;4.65;;;;;;;5.56;100.00;99451.19;5115817;27;20023;-55
2021/12/19 00:57:29;;;;;;;11.07;5.22;;;;;;;5.64;100.00;99451.19;5116589;27;20226;-55
2021/12/19 00:59:54;;;;;;;12.50;5.53;;;;;;;5.59;100.00;99457.22;5115766;27;20035;-55
2021/12/19 01:02:20;;;;;;;12.40;5.68;;;;;;;5.41;100.00;99462.34;5113639;27;20180;-54
2021/12/19 01:04:46;;;;;;;12.82;5.80;;;;;;;5.04;100.00;99462.22;5113941;27;20035;-55
2021/12/19 01:07:11;;;;;;;12.73;5.70;;;;;;;5.43;100.00;99463.22;5115397;27;20038;-55
2021/12/19 01:09:36;;;;;;;10.00;4.95;;;;;;;5.16;100.00;99462.25;5110765;28;20110;-54
2021/12/19 01:12:03;;;;;;;12.88;5.72;;;;;;;5.01;100.00;99457.00;5101856;27;20071;-54
2021/12/19 01:14:29;;;;;;;10.85;5.00;;;;;;;5.19;100.00;99446.75;5102372;28;20024;-56
2021/12/19 01:16:55;;;;;;;10.35;5.50;;;;;;;5.51;100.00;99445.97;5102233;28;20043;-55
2021/12/19 01:19:22;;;;;;;7.90;4.35;;;;;;;5.63;100.00;99444.31;5102258;28;20632;-55
2021/12/19 01:21:49;;;;;;;9.40;4.88;;;;;;;5.11;100.00;99437.22;5102013;28;20070;-55
2021/12/19 01:24:14;;;;;;;10.30;4.70;;;;;;;5.57;100.00;99433.06;5102205;28;20027;-56
2021/12/19 01:26:42;;;;;;;7.97;3.67;;;;;;;6.38;100.00;99444.38;5102176;27;20467;-56
2021/12/19 01:29:08;;;;;;;10.15;4.75;;;;;;;6.11;100.00;99447.84;5102719;28;20023;-54
2021/12/19 01:31:33;;;;;;;11.38;5.18;;;;;;;5.29;100.00;99445.03;5101571;28;20045;-54
2021/12/19 01:33:59;;;;;;;10.50;5.10;;;;;;;5.02;100.00;99445.81;5097142;28;20031;-57
2021/12/19 01:36:24;;;;;;;10.10;5.38;;;;;;;4.82;100.00;99445.72;5099106;28;20039;-55
2021/12/19 01:38:49;;;;;;;10.20;5.20;;;;;;;5.12;100.00;99449.31;5102443;28;20028;-54
2021/12/19 01:41:15;;;;;;;10.20;5.20;;;;;;;5.05;100.00;99456.16;5101864;28;20146;-54
2021/12/19 01:43:40;;;;;;;7.93;3.97;;;;;;;5.09;100.00;99459.63;5102215;28;20032;-54
2021/12/19 01:46:06;;;;;;;10.20;4.63;;;;;;;5.57;100.00;99451.19;5101593;28;20096;-54
2021/12/19 01:48:31;;;;;;;11.10;5.10;;;;;;;5.31;100.00;99442.47;5102867;28;20091;-54
2021/12/19 01:50:57;;;;;;;10.85;5.20;;;;;;;5.13;100.00;99436.38;5102310;28;20031;-54
2021/12/19 01:53:22;;;;;;;8.40;4.20;;;;;;;5.87;100.00;99436.56;5102718;28;20032;-55
2021/12/19 01:55:49;;;;;;;11.52;5.13;;;;;;;5.98;100.00;99434.88;5102453;28;20036;-54
2021/12/19 01:58:15;;;;;;;9.30;4.85;;;;;;;5.00;100.00;99432.88;5102643;28;20031;-55
2021/12/19 02:00:47;;;;;;;9.40;5.30;;;;;;;5.03;100.00;99429.44;5102148;28;20035;-55
2021/12/19 02:03:13;;;;;;;11.77;5.80;;;;;;;4.89;100.00;99426.78;5098885;28;20098;-55
2021/12/19 02:05:39;;;;;;;11.35;5.45;;;;;;;4.76;100.00;99419.81;5098840;28;20306;-54
2021/12/19 02:08:05;;;;;;;9.43;5.05;;;;;;;4.92;100.00;99413.84;5102241;28;20035;-56
2021/12/19 02:10:33;;;;;;;12.20;6.00;;;;;;;4.44;100.00;99423.94;5101687;27;20031;-55
2021/12/19 02:12:59;;;;;;;14.13;6.05;;;;;;;5.03;100.00;99413.91;5102273;28;20553;-55
2021/12/19 02:15:27;;;;;;;9.40;4.30;;;;;;;4.88;100.00;99408.69;5101780;28;20036;-54
2021/12/19 02:17:59;;;;;;;13.90;6.13;;;;;;;4.71;100.00;99406.88;5102483;28;20072;-55
2021/12/19 02:20:29;;;;;;;11.48;6.03;;;;;;;4.56;100.00;99396.47;5102033;28;20024;-56
2021/12/19 02:22:55;;;;;;;13.32;6.03;;;;;;;4.51;100.00;99399.00;5100872;28;20528;-55
2021/12/19 02:25:20;;;;;;;11.98;6.20;;;;;;;4.65;100.00;99399.09;5101915;28;20035;-54
2021/12/19 02:27:45;;;;;;;12.02;5.60;;;;;;;4.60;100.00;99393.03;5102414;28;20066;-54
2021/12/19 02:30:12;;;;;;;12.65;6.07;;;;;;;4.37;100.00;99393.75;5101812;28;20515;-54
2021/12/19 02:32:40;;;;;;;14.05;6.72;;;;;;;4.56;100.00;99392.16;5098637;28;20027;-55
2021/12/19 02:35:13;;;;;;;11.95;4.97;;;;;;;4.74;100.00;99399.16;5096178;28;20455;-55
2021/12/19 02:48:26;;;;;;;15.77;6.35;;;;;;;5.02;100.00;99383.75;5039104;28;20036;-55
2021/12/19 02:50:53;;;;;;;15.20;6.85;;;;;;;4.83;100.00;99381.09;5100084;28;20096;-55
2021/12/19 02:53:35;;;;;;;13.90;7.03;;;;;;;4.66;100.00;99379.28;5100496;28;20027;-55
2021/12/19 02:56:04;;;;;;;13.70;6.30;;;;;;;4.91;100.00;99373.38;5099965;27;20122;-55
2021/12/19 02:58:30;;;;;;;14.32;6.45;;;;;;;4.89;100.00;99371.63;5100488;28;20672;-53
2021/12/19 03:00:56;;;;;;;13.15;5.88;;;;;;;4.95;100.00;99374.25;5100718;28;20055;-55
2021/12/19 03:03:22;;;;;;;13.77;6.30;;;;;;;4.81;100.00;99369.00;5100197;28;20028;-55
2021/12/19 03:05:48;;;;;;;15.82;7.05;;;;;;;4.53;100.00;99366.28;5097865;28;20043;-54
2021/12/19 03:08:13;;;;;;;18.85;7.40;;;;;;;4.57;100.00;99362.00;5098240;28;20040;-56
2021/12/19 03:18:33;;;;;;;15.30;7.03;;;;;;;4.74;100.00;99344.88;5099661;28;20034;-55
2021/12/19 03:20:59;;;;;;;15.15;6.53;;;;;;;5.05;100.00;99339.78;5099947;27;20035;-55
2021/12/19 03:23:24;;;;;;;15.20;7.05;;;;;;;5.18;100.00;99333.78;5100068;28;20450;-54
2021/12/19 03:25:50;;;;;;;15.77;7.70;;;;;;;4.71;100.00;99344.84;5081597;28;20045;-54
2021/12/19 03:28:15;;;;;;;16.05;7.53;;;;;;;4.98;100.00;99345.78;5100230;28;20023;-56
2021/12/19 03:30:43;;;;;;;17.00;7.95;;;;;;;4.81;100.00;99338.84;5100001;28;20032;-56
2021/12/19 03:33:10;;;;;;;12.95;5.75;;;;;;;4.82;100.00;99327.66;5099652;28;20024;-56
2021/12/19 03:35:36;;;;;;;14.50;6.32;;;;;;;5.07;100.00;99321.69;5096205;28;20028;-55
2021/12/19 03:38:05;;;;;;;14.45;6.88;;;;;;;4.83;100.00;99324.22;5097234;28;20702;-54
2021/12/19 03:40:41;;;;;;;15.07;5.80;;;;;;;5.46;100.00;99332.94;5099283;28;20116;-54
2021/12/19 03:43:18;;;;;;;15.20;5.90;;;;;;;5.12;100.00;99330.31;5099530;28;20026;-55
2021/12/19 03:45:45;;;;;;;10.65;5.15;;;;;;;5.66;100.00;99313.13;5099434;28;20047;-53
2021/12/19 03:48:12;;;;;;;18.02;7.03;;;;;;;5.40;100.00;99320.88;5099832;28;20198;-55
2021/12/19 03:50:42;;;;;;;16.00;6.70;;;;;;;4.82;100.00;99306.97;5099651;28;20035;-53
2021/12/19 03:53:08;;;;;;;13.80;6.40;;;;;;;4.76;100.00;99317.28;5099681;28;20049;-53
2021/12/19 03:55:34;;;;;;;12.57;6.47;;;;;;;5.03;100.00;99315.63;5081078;28;20042;-54
2021/12/19 03:57:59;;;;;;;14.10;6.18;;;;;;;5.11;100.00;99316.53;5099581;28;20111;-54
2021/12/19 04:00:27;;;;;;;11.32;5.35;;;;;;;6.31;100.00;99321.69;5099278;28;20051;-54
2021/12/19 04:02:55;;;;;;;14.30;5.85;;;;;;;6.51;100.00;99310.41;5099759;28;20051;-54
2021/12/19 04:05:22;;;;;;;11.40;4.97;;;;;;;6.46;100.00;99310.41;5095659;28;20115;-54
2021/12/19 04:07:48;;;;;;;6.93;3.35;;;;;;;7.11;100.00;99313.59;5097704;28;20440;-54
2021/12/19 04:10:13;;;;;;;13.10;5.40;;;;;;;6.22;100.00;99311.38;5114443;28;20179;-53
2021/12/19 04:12:39;;;;;;;10.02;5.38;;;;;;;6.67;100.00;99300.84;5095492;28;20482;-53
2021/12/19 04:15:05;;;;;;;8.63;4.85;;;;;;;6.34;100.00;99297.50;5095249;28;20111;-54
2021/12/19 04:17:31;;;;;;;8.13;4.38;;;;;;;5.87;100.00;99286.34;5095191;28;20556;-55
2021/12/19 04:19:56;;;;;;;9.60;5.00;;;;;;;6.09;100.00;99281.19;5094330;28;20039;-54
2021/12/19 04:22:22;;;;;;;7.68;4.50;;;;;;;7.06;100.00;99278.16;5095041;28;20044;-55
2021/12/19 04:24:47;;;;;;;6.90;4.00;;;;;;;6.63;100.00;99284.44;5095551;28;20097;-53
2021/12/19 04:27:13;;;;;;;8.38;4.68;;;;;;;6.58;100.00;99286.19;5097485;28;20043;-54
2021/12/19 04:29:38;;;;;;;7.00;3.97;;;;;;;7.21;100.00;99282.41;5098070;28;20051;-54
2021/12/19 04:32:04;;;;;;;7.97;4.63;;;;;;;7.04;100.00;99275.59;5099185;28;20051;-54
2021/12/19 04:34:29;;;;;;;6.50;3.83;;;;;;;6.16;100.00;99273.38;5095468;28;20024;-54
2021/12/19 04:37:03;;;;;;;7.47;4.25;;;;;;;6.95;100.00;99275.63;5096496;28;20039;-54
2021/12/19 04:39:38;;;;;;;6.55;3.83;;;;;;;7.87;100.00;99274.91;5098743;28;20684;-55
2021/12/19 04:43:17;;;;;;;7.50;4.45;;;;;;;6.16;100.00;99277.72;5097564;28;20051;-54
2021/12/19 04:53:35;;;;;;;6.10;3.40;;;;;;;8.00;100.00;99272.22;5067344;28;20058;-54
2021/12/19 05:04:39;;;;;;;4.65;2.95;;;;;;;7.39;100.00;99265.81;5102763;28;20114;-54
2021/12/19 05:16:39;;;;;;;6.00;3.95;;;;;;;7.53;100.00;99254.47;5102272;28;20444;-55
2021/12/19 05:19:11;;;;;;;6.15;3.20;;;;;;;8.27;100.00;99248.50;5103062;28;20531;-55
2021/12/19 05:21:40;;;;;;;6.30;3.72;;;;;;;7.20;100.00;99250.38;5101161;28;20055;-55
2021/12/19 05:26:47;;;;;;;6.40;4.40;;;;;;;7.06;100.00;99241.84;5099249;27;20040;-56
2021/12/19 05:29:14;;;;;;;6.78;3.85;;;;;;;6.93;100.00;99246.25;5101322;28;20723;-55
2021/12/19 05:31:39;;;;;;;6.28;4.25;;;;;;;6.97;100.00;99247.09;5101435;28;20047;-54
2021/12/19 05:34:05;;;;;;;6.82;3.80;;;;;;;7.08;100.00;99250.47;5102316;28;20088;-54
2021/12/19 05:45:19;;;;;;;6.25;3.67;;;;;;;7.73;100.00;99250.81;5099822;28;20107;-55
2021/12/19 05:47:34;;;;;;;6.30;3.08;;;;;;;8.43;100.00;99253.53;5094865;28;20126;-55
2021/12/19 05:49:59;;;;;;;7.82;4.53;;;;;;;7.17;100.00;99249.53;5100587;28;20106;-56
2021/12/19 05:52:26;;;;;;;6.75;4.32;;;;;;;7.23;100.00;99246.91;5101367;28;20035;-52
2021/12/19 05:54:51;;;;;;;7.40;4.15;;;;;;;7.51;100.00;99240.59;5102030;28;20041;-54
2021/12/19 05:57:17;;;;;;;6.93;3.83;;;;;;;7.22;100.00;99248.63;5101400;28;20039;-55
2021/12/19 05:59:42;;;;;;;7.07;4.38;;;;;;;6.87;100.00;99251.47;5101828;28;20024;-54
2021/12/19 06:02:07;;;;;;;5.75;3.45;;;;;;;7.54;100.00;99234.53;5101137;28;20517;-55
2021/12/19 06:04:33;;;;;;;4.65;2.90;;;;;;;7.55;100.00;99233.66;5099040;28;20405;-53
2021/12/19 06:06:58;;;;;;;6.10;3.72;;;;;;;7.70;100.00;99227.44;5099232;28;20854;-54
2021/12/19 06:09:24;;;;;;;5.57;3.42;;;;;;;8.27;100.00;99243.31;5099855;28;20060;-53
2021/12/19 06:11:49;;;;;;;6.75;4.07;;;;;;;6.07;100.00;99225.91;5101210;28;20130;-54
2021/12/19 06:14:14;;;;;;;6.03;3.08;;;;;;;8.04;100.00;99227.97;5100460;28;20420;-55
2021/12/19 06:16:40;;;;;;;6.20;4.05;;;;;;;7.71;100.00;99221.38;5101252;28;20897;-54
2021/12/19 06:19:05;;;;;;;6.10;3.45;;;;;;;7.59;100.00;99231.88;5101651;28;20027;-55
2021/12/19 06:21:30;;;;;;;7.97;3.72;;;;;;;8.45;100.00;99220.59;5099561;28;20048;-54
2021/12/19 06:23:56;;;;;;;5.78;3.15;;;;;;;8.16;100.00;99220.91;5101708;28;20080;-54
2021/12/19 06:26:21;;;;;;;7.18;3.35;;;;;;;7.26;100.00;99218.31;5101256;28;20072;-54
2021/12/19 06:28:46;;;;;;;7.60;4.72;;;;;;;6.41;100.00;99212.81;5100334;28;20030;-53
2021/12/19 06:31:12;;;;;;;5.57;2.90;;;;;;;8.35;100.00;99214.63;5101105;27;20067;-54
2021/12/19 06:33:37;;;;;;;5.85;3.75;;;;;;;8.67;100.00;99224.63;5099762;28;20122;-53
2021/12/19 06:36:03;;;;;;;6.78;4.05;;;;;;;7.34;100.00;99219.13;5100462;27;20464;-55
2021/12/19 06:38:28;;;;;;;6.95;4.32;;;;;;;6.66;100.00;99218.75;5101578;28;20112;-55
2021/12/19 06:40:54;;;;;;;6.70;4.05;;;;;;;6.82;100.00;99222.09;5100803;28;20035;-53
2021/12/19 06:43:19;;;;;;;5.32;2.53;;;;;;;8.33;100.00;99210.31;5101149;28;20047;-54
2021/12/19 06:45:45;;;;;;;5.60;3.60;;;;;;;7.99;100.00;99200.31;5101101;28;20591;-54
2021/12/19 06:48:10;;;;;;;8.00;5.25;;;;;;;6.68;100.00;99199.72;5101145;28;20019;-53
2021/12/19 06:50:36;;;;;;;6.95;4.88;;;;;;;6.41;100.00;99194.69;5100916;28;20489;-57
2021/12/19 06:53:01;;;;;;;5.28;3.42;;;;;;;7.39;100.00;99203.50;5101021;28;20035;-53
2021/12/19 06:55:26;;;;;;;6.75;4.50;;;;;;;6.94;100.00;99207.31;5100812;27;20084;-54
2021/12/19 06:57:52;;;;;;;6.65;4.43;;;;;;;7.26;100.00;99203.63;5101223;28;20066;-55
2021/12/19 07:00:22;;;;;;;7.18;4.75;;;;;;;6.53;100.00;99202.41;5100773;28;20074;-53
2021/12/19 07:02:47;;;;;;;7.50;4.85;;;;;;;8.03;100.00;99209.78;5100865;28;20039;-54
2021/12/19 07:05:13;;;;;;;7.43;4.88;;;;;;;7.05;100.00;99217.63;5100390;28;20031;-56
2021/12/19 07:07:38;;;;;;;6.32;4.45;;;;;;;6.98;100.00;99228.06;5100514;28;20028;-57
2021/12/19 07:10:06;;;;;;;7.00;4.90;;;;;;;6.08;100.00;99222.44;5099504;28;20107;-54
2021/12/19 07:12:31;;;;;;;7.25;4.32;;;;;;;7.12;100.00;99206.31;5100447;28;20050;-54
2021/12/19 07:14:58;;;;;;;3.50;2.50;;;;;;;9.63;100.00;99220.53;5099822;28;20262;-55
2021/12/19 07:17:24;;;;;;;5.10;3.35;;;;;;;8.11;100.00;99216.63;5100212;28;20039;-54
2021/12/19 07:19:50;;;;;;;7.13;4.95;;;;;;;6.23;100.00;99212.03;5101136;28;20418;-55
2021/12/19 07:22:15;;;;;;;7.78;4.65;;;;;;;7.45;100.00;99209.50;5100260;28;20042;-54
2021/12/19 07:24:41;;;;;;;7.93;5.30;;;;;;;6.43;100.00;99204.16;5099647;28;20035;-54
2021/12/19 07:27:06;;;;;;;8.73;4.45;;;;;;;7.12;100.00;99201.13;5100061;28;20617;-55
2021/12/19 07:29:32;;;;;;;7.15;3.92;;;;;;;8.41;100.00;99205.88;5100681;28;20024;-55
2021/12/19 07:31:58;;;;;;;7.60;5.57;;;;;;;6.09;100.00;99206.06;5099710;28;20041;-54
2021/12/19 07:34:31;;;;;;;5.57;3.28;;;;;;;7.34;100.00;99200.97;5100666;28;20057;-52
2021/12/19 07:36:57;;;;;;;5.95;4.18;;;;;;;9.09;100.00;99191.94;5099752;28;20054;-57
2021/12/19 07:39:52;;;;;;;6.57;5.03;;;;;;;8.84;100.00;99193.16;5099811;28;20971;-55
2021/12/19 07:42:11;;;;;;;6.90;5.28;;;;;;;6.93;100.00;99194.38;5099711;28;20062;-55
2021/12/19 07:44:38;;;;;;;6.05;4.20;;;;;;;7.40;100.00;99206.09;5100178;28;20397;-57
2021/12/19 07:47:06;;;;;;;4.40;2.75;;;;;;;8.85;100.00;99204.44;5099948;28;20092;-55
2021/12/19 07:49:32;;;;;;;7.72;4.82;;;;;;;8.13;100.00;99193.22;5099320;28;20015;-54
2021/12/19 07:51:57;;;;;;;3.17;2.10;;;;;;;9.52;100.00;99202.50;5099912;28;20051;-54
2021/12/19 07:54:23;;;;;;;3.22;2.22;;;;;;;10.12;100.00;99201.34;5100499;28;20093;-56
2021/12/19 07:56:48;;;;;;;4.57;3.47;;;;;;;9.49;100.00;99180.84;5100044;28;20130;-54
2021/12/19 07:59:14;;;;;;;5.50;3.55;;;;;;;7.70;100.00;99183.28;5098514;28;20102;-54
2021/12/19 08:01:40;;;;;;;4.45;2.92;;;;;;;9.15;100.00;99177.06;5095963;28;20115;-55
2021/12/19 08:04:05;;;;;;;6.40;4.03;;;;;;;9.31;100.00;99180.28;5099878;28;20023;-54
2021/12/19 08:06:31;;;;;;;7.00;5.13;;;;;;;8.77;100.00;99177.69;5099568;28;20075;-54
2021/12/19 08:08:58;;;;;;;7.07;4.28;;;;;;;7.64;100.00;99172.97;5098496;28;20338;-56
2021/12/19 08:11:40;;;;;;;4.57;3.22;;;;;;;7.33;100.00;99179.34;5098487;28;20036;-55
2021/12/19 08:14:08;;;;;;;9.77;6.93;;;;;;;6.45;100.00;99173.06;5099440;28;20027;-53
2021/12/19 08:16:34;;;;;;;8.18;4.78;;;;;;;7.04;100.00;99166.63;5099610;28;20032;-55
2021/12/19 08:18:59;;;;;;;8.65;6.20;;;;;;;6.96;100.00;99165.78;5099828;28;20099;-54
2021/12/19 08:21:25;;;;;;;6.38;3.10;;;;;;;11.35;100.00;99175.13;5102867;27;20039;-54
2021/12/19 08:23:50;;;;;;;4.95;3.85;;;;;;;10.06;100.00;99146.75;5103731;28;20024;-55
2021/12/19 08:26:16;;;;;;;4.28;2.80;;;;;;;10.09;100.00;99151.03;5103881;28;20117;-54
2021/12/19 08:28:41;;;;;;;3.58;2.05;;;;;;;13.81;100.00;99145.03;5100698;28;20730;-54
2021/12/19 08:31:06;;;;;;;8.70;5.50;;;;;;;9.94;100.00;99120.91;5101791;28;20042;-55
2021/12/19 08:33:32;;;;;;;4.70;3.55;;;;;;;12.70;100.00;99123.41;5099070;28;20027;-57
2021/12/19 08:35:59;;;;;;;4.18;3.00;;;;;;;10.79;100.00;99126.03;5101006;28;20046;-54
2021/12/19 08:38:25;;;;;;;4.72;3.25;;;;;;;11.86;100.00;99126.75;5101624;28;20020;-55
2021/12/19 08:40:51;;;;;;;3.92;2.40;;;;;;;11.54;100.00;99132.84;5100944;27;20051;-54
2021/12/19 08:43:18;;;;;;;4.60;2.45;;;;;;;15.04;100.00;99130.69;5101808;28;20030;-56
2021/12/19 08:45:44;;;;;;;5.20;3.50;;;;;;;9.22;100.00;99123.16;5102622;28;20968;-55
2021/12/19 08:48:09;;;;;;;7.85;4.88;;;;;;;7.83;100.00;99125.16;5103336;28;20021;-54
2021/12/19 08:50:35;;;;;;;9.70;7.25;;;;;;;7.81;100.00;99118.25;5102852;28;20110;-54
2021/12/19 08:53:01;;;;;;;10.07;7.00;;;;;;;7.85;100.00;99123.41;5102858;28;20020;-53
2021/12/19 08:55:27;;;;;;;7.47;4.95;;;;;;;9.24;100.00;99127.47;5103157;28;20499;-56
2021/12/19 08:57:52;;;;;;;9.25;4.53;;;;;;;9.47;100.00;99125.34;5103406;28;20031;-55
2021/12/19 09:00:18;;;;;;;4.50;3.10;;;;;;;10.22;100.00;99111.63;5102896;28;20055;-54
2021/12/19 09:02:46;;;;;;;7.78;5.50;;;;;;;7.31;100.00;99117.94;5103254;28;20102;-54
2021/12/19 09:05:12;;;;;;;10.25;7.00;;;;;;;6.80;100.00;99117.50;5102825;28;20811;-53
2021/12/19 09:07:38;;;;;;;12.45;8.35;;;;;;;6.37;100.00;99110.91;5103201;28;20053;-55
2021/12/19 09:10:05;;;;;;;12.25;7.05;;;;;;;7.04;100.00;99119.91;5102371;28;20024;-54
2021/12/19 09:12:30;;;;;;;16.88;9.57;;;;;;;6.33;100.00;99110.06;5102547;28;20035;-55
2021/12/19 09:14:56;;;;;;;14.43;8.45;;;;;;;6.09;100.00;99105.03;5102973;28;20035;-54
2021/12/19 09:17:21;;;;;;;14.40;8.32;;;;;;;6.44;100.00;99103.97;5102535;28;20039;-54
2021/12/19 09:19:47;;;;;;;12.05;7.75;;;;;;;6.88;100.00;99102.75;5101264;28;20024;-55
2021/12/19 09:22:12;;;;;;;12.32;6.50;;;;;;;7.57;100.00;99093.44;5102295;28;20127;-55
2021/12/19 09:24:38;;;;;;;13.52;8.95;;;;;;;6.51;100.00;99087.50;5101392;28;20447;-54
2021/12/19 09:27:04;;;;;;;15.70;8.82;;;;;;;6.85;100.00;99088.06;5102531;28;20124;-53
2021/12/19 09:29:30;;;;;;;13.70;8.05;;;;;;;6.63;100.00;99097.75;5102616;28;20016;-54
2021/12/19 09:31:57;;;;;;;12.02;7.82;;;;;;;6.81;100.00;99095.91;5101645;28;20522;-53
2021/12/19 09:34:23;;;;;;;8.40;4.47;;;;;;;9.77;100.00;99103.88;5102615;28;20066;-54
2021/12/19 09:36:49;;;;;;;11.07;6.90;;;;;;;8.03;100.00;99088.53;5102047;28;20036;-54
2021/12/19 09:39:15;;;;;;;9.52;6.00;;;;;;;7.84;100.00;99097.44;5102232;28;20019;-56
2021/12/19 09:41:44;;;;;;;8.25;5.72;;;;;;;7.32;100.00;99097.16;5102212;28;20699;-55
2021/12/19 09:44:11;;;;;;;10.20;6.80;;;;;;;7.51;100.00;99091.75;5102809;28;20038;-53
2021/12/19 09:46:39;;;;;;;12.63;8.35;;;;;;;6.90;100.00;99090.63;5102194;28;20512;-55
2021/12/19 09:49:06;;;;;;;7.55;4.68;;;;;;;8.78;100.00;99093.53;5102151;28;20039;-55
2021/12/19 09:51:32;;;;;;;12.75;7.28;;;;;;;7.34;100.00;99076.38;5102472;28;20130;-57
2021/12/19 09:53:57;;;;;;;11.90;6.18;;;;;;;8.28;100.00;99067.41;5102056;27;20153;-54
2021/12/19 09:56:22;;;;;;;8.38;5.47;;;;;;;8.18;100.00;99066.69;5101980;27;20043;-56
2021/12/19 09:58:50;;;;;;;11.55;7.90;;;;;;;6.93;100.00;99055.16;5102033;28;20039;-56
2021/12/19 10:01:16;;;;;;;7.38;5.20;;;;;;;7.22;100.00;99063.53;5102037;28;20043;-54
2021/12/19 10:03:41;;;;;;;12.75;8.25;;;;;;;6.41;100.00;99049.53;5101931;28;20030;-54
2021/12/19 10:06:20;;;;;;;9.30;6.18;;;;;;;6.94;100.00;99056.00;5101378;28;20108;-55
2021/12/19 10:08:49;;;;;;;7.68;4.95;;;;;;;7.34;100.00;99042.63;5102452;28;20149;-54
2021/12/19 10:11:47;;;;;;;14.98;9.48;;;;;;;7.03;100.00;99048.13;5101115;28;20486;-56
2021/12/19 10:14:28;;;;;;;15.57;10.40;;;;;;;6.63;100.00;99040.72;5101692;28;20078;-56
2021/12/19 10:16:54;;;;;;;18.67;11.05;;;;;;;6.64;100.00;99026.03;5101599;28;20147;-55
2021/12/19 10:19:19;;;;;;;15.30;8.70;;;;;;;7.02;100.00;99041.25;5101418;28;20058;-53
2021/12/19 10:21:45;;;;;;;16.98;10.35;;;;;;;6.41;100.00;99040.03;5101074;28;20111;-54
2021/12/19 10:24:28;;;;;;;11.77;7.35;;;;;;;6.77;100.00;99037.16;5101291;28;20039;-55
2021/12/19 10:26:54;;;;;;;16.13;10.70;;;;;;;6.16;100.00;99034.19;5101394;28;20121;-56
2021/12/19 10:29:19;;;;;;;16.45;9.95;;;;;;;6.78;100.00;99023.31;5101930;28;20081;-54
2021/12/19 10:32:02;;;;;;;15.00;9.25;;;;;;;6.96;100.00;99012.75;5101267;28;20131;-55
2021/12/19 10:34:28;;;;;;;15.27;9.52;;;;;;;6.98;100.00;99004.97;5101309;28;20475;-54
2021/12/19 10:36:53;;;;;;;15.60;10.25;;;;;;;7.21;100.00;99008.16;5100782;28;20151;-55
2021/12/19 10:39:19;;;;;;;11.38;7.50;;;;;;;7.38;100.00;99001.94;5101381;28;20048;-53
2021/12/19 10:41:58;;;;;;;8.63;5.68;;;;;;;7.40;100.00;98998.41;5116392;27;20413;-53
2021/12/19 10:47:23;;;;;;;9.55;6.28;;;;;;;8.56;100.00;98984.63;5101210;28;20050;-54
2021/12/19 10:49:48;;;;;;;7.70;4.75;;;;;;;9.17;100.00;98984.41;5101571;28;20020;-55
2021/12/19 10:52:14;;;;;;;4.95;3.50;;;;;;;10.26;100.00;98978.59;5100971;27;20078;-54
2021/12/19 10:54:59;;;;;;;7.22;4.57;;;;;;;8.85;100.00;98985.88;5101416;28;20687;-56
2021/12/19 10:57:35;;;;;;;10.10;7.20;;;;;;;7.74;100.00;98972.03;5100830;28;20035;-56
2021/12/19 11:00:04;;;;;;;11.85;7.78;;;;;;;8.15;100.00;98977.50;5101121;28;20110;-54
2021/12/19 11:02:42;;;;;;;11.02;7.55;;;;;;;8.97;100.00;98958.75;5100527;28;20789;-55
2021/12/19 11:05:37;;;;;;;9.95;6.55;;;;;;;7.53;100.00;98958.47;5100271;28;20127;-56
2021/12/19 11:08:05;;;;;;;5.57;2.75;;;;;;;11.28;100.00;98954.16;5101064;28;20024;-56
2021/12/19 11:10:32;;;;;;;8.65;5.30;;;;;;;9.17;100.00;98951.44;5100105;28;20110;-55
2021/12/19 11:13:09;;;;;;;6.75;4.78;;;;;;;9.10;100.00;98949.84;5100872;28;20579;-55
2021/12/19 11:15:35;;;;;;;12.73;8.60;;;;;;;6.96;100.00;98945.31;5099644;28;20032;-57
2021/12/19 11:18:01;;;;;;;8.18;5.57;;;;;;;7.98;100.00;98955.22;5100380;28;20993;-56
2021/12/19 11:20:26;;;;;;;8.00;5.22;;;;;;;8.95;100.00;98942.31;5100236;28;20039;-54
2021/12/19 11:22:53;;;;;;;5.43;3.95;;;;;;;9.77;100.00;98929.31;5100834;28;20030;-55
2021/12/19 11:25:19;;;;;;;10.27;7.10;;;;;;;8.24;100.00;98930.56;5099747;28;20050;-54
2021/12/19 11:27:44;;;;;;;11.57;7.35;;;;;;;8.72;100.00;98927.16;5100941;28;20438;-54
2021/12/19 11:30:11;;;;;;;9.32;6.65;;;;;;;8.19;100.00;98925.44;5100216;28;20625;-54
2021/12/19 11:32:47;;;;;;;10.60;6.47;;;;;;;7.73;100.00;98920.97;5100681;28;20077;-53
2021/12/19 11:35:18;;;;;;;11.30;7.47;;;;;;;7.34;100.00;98908.50;5099796;28;20023;-53
2021/12/19 11:37:49;;;;;;;15.15;7.63;;;;;;;8.54;100.00;98900.59;5100151;28;20129;-54
2021/12/19 11:40:17;;;;;;;13.07;8.70;;;;;;;7.31;100.00;98895.56;5099984;28;20027;-52
2021/12/19 11:42:43;;;;;;;12.18;7.88;;;;;;;8.20;100.00;98901.19;5100557;28;20332;-53
2021/12/19 11:47:50;;;;;;;6.72;4.40;;;;;;;8.55;100.00;98894.53;5100595;28;20461;-53
2021/12/19 11:50:23;;;;;;;5.10;3.35;;;;;;;11.63;100.00;98894.78;5100429;28;20532;-53
2021/12/19 11:52:51;;;;;;;9.30;6.00;;;;;;;7.79;100.00;98878.44;5099838;28;20047;-53
2021/12/19 11:55:27;;;;;;;11.95;8.05;;;;;;;7.39;100.00;98876.44;5099809;28;20031;-55
2021/12/19 11:58:07;;;;;;;5.28;2.90;;;;;;;10.34;100.00;98880.19;5099700;28;20811;-55
2021/12/19 12:00:40;;;;;;;5.97;3.85;;;;;;;10.28;100.00;98860.31;5099185;28;20043;-54
2021/12/19 12:03:11;;;;;;;9.82;6.05;;;;;;;8.70;100.00;98861.31;5099591;28;20020;-55
2021/12/19 12:05:36;;;;;;;5.85;3.65;;;;;;;9.99;100.00;98848.88;5099331;28;20397;-55
2021/12/19 12:08:05;;;;;;;10.23;7.45;;;;;;;9.65;100.00;98841.03;5099763;28;20027;-54
2021/12/19 12:10:49;;;;;;;4.13;2.80;;;;;;;10.27;100.00;98842.94;5098912;28;20042;-53
2021/12/19 12:13:23;;;;;;;3.70;2.38;;;;;;;10.92;100.00;98826.41;5099310;28;20027;-53
2021/12/19 12:15:54;;;;;;;3.85;2.15;;;;;;;12.25;100.00;98827.47;5098763;28;20047;-54
2021/12/19 12:18:38;;;;;;;6.43;4.70;;;;;;;10.02;100.00;98834.91;5099833;28;20581;-54
2021/12/19 12:21:19;;;;;;;5.43;3.80;;;;;;;9.89;100.00;98830.88;5099182;28;20115;-54
2021/12/19 12:24:06;;;;;;;5.32;3.35;;;;;;;8.77;100.00;98829.09;5099668;28;20524;-54
2021/12/19 12:26:38;;;;;;;11.90;7.35;;;;;;;7.25;100.00;98816.97;5099273;28;20035;-53
2021/12/19 12:29:04;;;;;;;9.73;6.65;;;;;;;9.16;100.00;98813.50;5099380;28;20015;-53
2021/12/19 12:31:29;;;;;;;3.75;2.40;;;;;;;11.75;100.00;98821.22;5099130;28;20089;-53
2021/12/19 12:33:56;;;;;;;12.85;8.43;;;;;;;7.63;100.00;98812.94;5099686;28;20108;-55
2021/12/19 12:36:22;;;;;;;14.35;9.27;;;;;;;7.37;100.00;98809.00;5098992;28;20040;-55
2021/12/19 12:38:51;;;;;;;13.55;9.13;;;;;;;6.66;100.00;98803.91;5098340;28;20050;-54